Time;durP1;ratioP1;P1;durP2;ratioP2;P2;SDS_P1;SDS_P2;PMS_P1;PMS_P2;Temp;Humidity;BMP_temperature;BMP_pressure;BME280_temperature;BME280_humidity;BME280_pressure;Samples;Min_cycle;Max_cycle;Signal;HPM_P1;HPM_P2
2022/11/12 00:01:27;;;;;;;10.68;6.75;;;17.00;56.50;;;;;;4996381;28;20296;-70
2022/11/12 00:04:15;;;;;;;10.57;7.18;;;17.00;56.50;;;;;;4995959;28;20188;-70
2022/11/12 00:07:01;;;;;;;9.52;6.53;;;17.00;56.70;;;;;;4995950;28;20715;-70
2022/11/12 00:09:47;;;;;;;10.85;6.55;;;16.90;56.50;;;;;;4995908;28;20656;-70
2022/11/12 00:12:32;;;;;;;10.45;6.90;;;16.90;56.60;;;;;;4996037;28;20276;-71
2022/11/12 00:15:18;;;;;;;9.75;6.45;;;16.90;56.40;;;;;;4996459;28;20243;-71
2022/11/12 00:18:04;;;;;;;9.23;6.40;;;16.90;56.50;;;;;;4995840;28;20236;-71
2022/11/12 00:20:52;;;;;;;8.82;6.35;;;16.90;56.60;;;;;;4995120;28;20180;-71
2022/11/12 00:23:38;;;;;;;10.98;6.55;;;16.90;56.70;;;;;;4996354;28;20189;-71
2022/11/12 00:26:23;;;;;;;8.43;6.13;;;16.80;56.60;;;;;;4996490;28;20260;-71
2022/11/12 00:29:09;;;;;;;11.70;7.10;;;16.80;56.70;;;;;;4996412;28;20184;-71
2022/11/12 00:31:55;;;;;;;10.68;6.70;;;16.80;56.80;;;;;;5001193;28;20208;-71
2022/11/12 00:34:41;;;;;;;9.57;6.10;;;16.80;56.70;;;;;;4997354;28;20675;-71
2022/11/12 00:37:28;;;;;;;10.70;6.35;;;16.80;56.60;;;;;;4995697;28;20236;-71
2022/11/12 00:40:13;;;;;;;9.35;6.40;;;16.80;56.90;;;;;;4995823;28;20188;-70
2022/11/12 00:42:59;;;;;;;9.48;6.90;;;16.70;56.90;;;;;;4995402;28;20297;-70
2022/11/12 00:45:45;;;;;;;10.05;6.70;;;16.70;56.90;;;;;;4995981;28;20240;-70
2022/11/12 00:48:31;;;;;;;9.02;6.20;;;16.70;56.80;;;;;;4996093;28;20200;-71
2022/11/12 00:51:16;;;;;;;9.18;6.18;;;16.70;56.80;;;;;;4995641;28;20189;-71
2022/11/12 00:54:03;;;;;;;8.85;6.57;;;16.70;56.80;;;;;;4995721;28;20211;-71
2022/11/12 00:56:49;;;;;;;10.50;6.55;;;16.60;56.80;;;;;;4996177;28;20232;-71
2022/11/12 00:59:35;;;;;;;10.85;7.15;;;16.60;56.90;;;;;;4996365;28;20185;-71
2022/11/12 01:02:21;;;;;;;9.23;6.25;;;16.60;56.80;;;;;;4996421;28;20193;-71
2022/11/12 01:05:08;;;;;;;10.45;6.63;;;16.60;56.70;;;;;;4995422;28;20512;-71
2022/11/12 01:07:54;;;;;;;9.18;6.45;;;16.60;57.00;;;;;;4995328;28;20225;-71
2022/11/12 01:10:41;;;;;;;9.13;6.10;;;16.60;57.10;;;;;;4995265;28;20192;-71
2022/11/12 01:13:26;;;;;;;8.75;6.07;;;16.60;57.00;;;;;;4994878;28;20188;-71
2022/11/12 01:16:13;;;;;;;6.95;5.78;;;16.60;57.00;;;;;;4994889;28;20212;-71
2022/11/12 01:19:00;;;;;;;7.63;5.88;;;16.60;57.10;;;;;;4994966;28;20300;-70
2022/11/12 01:21:46;;;;;;;8.10;5.55;;;16.50;56.90;;;;;;4994734;28;20212;-70
2022/11/12 01:24:31;;;;;;;7.25;5.75;;;16.50;57.00;;;;;;4995003;28;20191;-70
2022/11/12 01:27:18;;;;;;;8.65;6.15;;;16.50;56.90;;;;;;4994745;28;20212;-71
2022/11/12 01:30:05;;;;;;;8.63;6.03;;;16.50;56.90;;;;;;4994608;28;20192;-71
2022/11/12 01:32:50;;;;;;;7.97;5.60;;;16.50;57.10;;;;;;4994979;28;20184;-71
2022/11/12 01:35:36;;;;;;;8.23;5.80;;;16.50;57.20;;;;;;4994737;28;20201;-71
2022/11/12 01:38:25;;;;;;;8.85;5.75;;;16.50;57.10;;;;;;4994248;28;20216;-71
2022/11/12 01:41:11;;;;;;;7.28;5.78;;;16.40;57.00;;;;;;4994762;28;20211;-71
2022/11/12 01:44:09;;;;;;;7.07;5.40;;;16.40;57.10;;;;;;4994350;28;20184;-71
2022/11/12 01:46:58;;;;;;;6.38;5.32;;;16.40;57.10;;;;;;4994064;28;20215;-71
2022/11/12 01:49:46;;;;;;;7.57;5.65;;;16.40;57.00;;;;;;4994171;28;20188;-71
2022/11/12 01:52:32;;;;;;;6.80;5.78;;;16.40;57.00;;;;;;4994534;28;20211;-71
2022/11/12 01:55:20;;;;;;;7.90;6.22;;;16.40;57.10;;;;;;4994567;28;20643;-71
2022/11/12 01:58:08;;;;;;;6.80;5.90;;;16.40;57.10;;;;;;4994017;28;20302;-71
2022/11/12 02:00:56;;;;;;;6.85;5.93;;;16.40;57.00;;;;;;4994605;28;20189;-71
2022/11/12 02:03:42;;;;;;;8.00;5.68;;;16.40;57.20;;;;;;4994567;28;20240;-70
2022/11/12 02:06:27;;;;;;;8.27;5.30;;;16.40;57.20;;;;;;4994866;28;20220;-70
2022/11/12 02:09:13;;;;;;;6.78;5.38;;;16.30;57.30;;;;;;4994735;28;20189;-70
2022/11/12 02:11:59;;;;;;;7.05;5.55;;;16.30;57.10;;;;;;4994244;28;20189;-70
2022/11/12 02:14:44;;;;;;;7.38;5.45;;;16.30;57.00;;;;;;4994608;28;20188;-70
2022/11/12 02:17:31;;;;;;;6.78;5.88;;;16.30;57.20;;;;;;4994447;28;20307;-70
2022/11/12 02:20:17;;;;;;;7.32;5.07;;;16.30;57.20;;;;;;4994584;28;20192;-70
2022/11/12 02:23:04;;;;;;;5.88;5.25;;;16.30;57.30;;;;;;4994888;28;20196;-70
2022/11/12 02:25:50;;;;;;;8.55;5.47;;;16.30;57.30;;;;;;4994375;28;20188;-70
2022/11/12 02:34:06;;;;;;;6.32;5.10;;;16.20;57.10;;;;;;5208794;23;20237;-55
2022/11/12 02:36:52;;;;;;;6.50;5.47;;;16.20;57.30;;;;;;5033918;23;20332;-70
2022/11/12 02:39:39;;;;;;;5.93;4.97;;;16.20;57.00;;;;;;4994132;28;20229;-70
2022/11/12 02:42:25;;;;;;;6.72;5.50;;;16.20;57.10;;;;;;4993948;28;20580;-70
2022/11/12 02:45:11;;;;;;;6.15;5.25;;;16.20;57.20;;;;;;5003066;23;20554;-70
2022/11/12 02:47:56;;;;;;;6.00;4.85;;;16.20;57.00;;;;;;4978051;28;20659;-70
2022/11/12 02:50:42;;;;;;;6.20;4.85;;;16.20;57.10;;;;;;4978005;28;20225;-70
2022/11/12 02:53:28;;;;;;;6.38;4.88;;;16.20;57.30;;;;;;4977732;28;20711;-70
2022/11/12 02:56:15;;;;;;;5.75;5.13;;;16.20;57.10;;;;;;4977838;28;20546;-70
2022/11/12 02:59:01;;;;;;;5.55;4.80;;;16.20;57.20;;;;;;4978061;28;20210;-70
2022/11/12 03:01:47;;;;;;;6.82;5.05;;;16.20;57.20;;;;;;4977607;28;20237;-69
2022/11/12 03:04:32;;;;;;;6.15;5.22;;;16.20;57.20;;;;;;4978129;28;20277;-70
2022/11/12 03:07:18;;;;;;;5.38;4.60;;;16.10;56.90;;;;;;4977461;28;20197;-70
2022/11/12 03:10:05;;;;;;;6.03;4.80;;;16.10;57.10;;;;;;4977552;28;20185;-70
2022/11/12 03:12:52;;;;;;;6.10;4.97;;;16.10;57.10;;;;;;4978913;28;20197;-70
2022/11/12 03:15:37;;;;;;;5.65;5.05;;;16.10;57.10;;;;;;4977699;28;20268;-70
2022/11/12 03:18:22;;;;;;;5.65;4.82;;;16.10;57.00;;;;;;4977882;28;20575;-70
2022/11/12 03:21:08;;;;;;;5.13;4.55;;;16.10;57.10;;;;;;4977874;28;20260;-70
2022/11/12 03:23:53;;;;;;;5.57;4.60;;;16.10;56.90;;;;;;4977337;28;20192;-70
2022/11/12 03:26:39;;;;;;;6.93;4.93;;;16.10;57.00;;;;;;4977364;28;20215;-70
2022/11/12 03:29:26;;;;;;;5.15;4.60;;;16.10;57.00;;;;;;4977938;28;20240;-70
2022/11/12 03:32:12;;;;;;;5.55;4.70;;;16.10;56.80;;;;;;4977315;28;20232;-70
2022/11/12 03:34:57;;;;;;;6.97;4.50;;;16.10;57.10;;;;;;5058411;23;20580;-70
2022/11/12 03:37:43;;;;;;;6.03;4.68;;;16.10;56.90;;;;;;4997124;28;20349;-70
2022/11/12 03:40:29;;;;;;;5.47;4.40;;;16.10;57.20;;;;;;4997744;28;20193;-70
2022/11/12 03:43:14;;;;;;;4.68;4.28;;;16.00;57.10;;;;;;4997503;28;20205;-70
2022/11/12 03:46:01;;;;;;;4.80;4.30;;;16.00;57.10;;;;;;4997098;28;20204;-70
2022/11/12 03:48:47;;;;;;;5.65;4.50;;;16.00;57.20;;;;;;4997220;28;20197;-70
2022/11/12 03:51:33;;;;;;;4.97;4.25;;;16.00;57.10;;;;;;4997439;28;20220;-70
2022/11/12 03:54:19;;;;;;;5.40;4.50;;;16.00;57.10;;;;;;4997914;28;20189;-70
2022/11/12 03:57:05;;;;;;;4.68;4.25;;;16.00;57.30;;;;;;4996323;28;20212;-70
2022/11/12 03:59:50;;;;;;;4.80;4.32;;;16.00;57.10;;;;;;4997518;28;20536;-70
2022/11/12 04:02:37;;;;;;;6.05;3.92;;;16.00;57.10;;;;;;4997690;28;20189;-69
2022/11/12 04:14:00;;;;;;;4.82;4.07;;;16.00;57.30;;;;;;4956930;29;20224;-70
2022/11/12 04:22:49;;;;;;;4.75;4.20;;;15.90;57.20;;;;;;4939041;29;20311;-71
2022/11/12 04:28:38;;;;;;;4.20;3.72;;;15.90;57.30;;;;;;4938549;29;20262;-71
2022/11/12 04:31:23;;;;;;;4.22;3.83;;;15.90;57.30;;;;;;4938364;29;20218;-71
2022/11/12 04:37:13;;;;;;;4.32;3.70;;;16.00;57.30;;;;;;4937648;29;20298;-71
2022/11/12 04:44:58;;;;;;;4.15;3.75;;;16.00;57.10;;;;;;4937814;29;20191;-71
2022/11/12 04:46:09;;;;;;;4.10;3.70;;;16.00;57.10;;;;;;4975655;28;20362;-64
2022/11/12 04:48:55;;;;;;;3.63;3.33;;;16.00;56.90;;;;;;4956273;29;20190;-64
2022/11/12 04:54:46;;;;;;;4.15;3.75;;;16.10;56.80;;;;;;4997028;23;21395;-67
2022/11/12 04:57:31;;;;;;;4.07;3.70;;;16.10;56.70;;;;;;4975826;28;20213;-67
2022/11/12 05:00:18;;;;;;;4.75;3.45;;;16.10;56.90;;;;;;4975737;28;20192;-66
2022/11/12 05:03:03;;;;;;;3.63;3.33;;;16.10;57.00;;;;;;4976076;28;20651;-65
2022/11/12 05:05:48;;;;;;;3.60;3.30;;;16.10;57.20;;;;;;4976280;28;20233;-65
2022/11/12 05:08:34;;;;;;;4.22;3.83;;;16.10;57.10;;;;;;4961261;28;20197;-65
2022/11/12 05:11:22;;;;;;;3.80;3.40;;;16.10;57.10;;;;;;4983263;28;20298;-65
2022/11/12 05:14:08;;;;;;;3.22;2.92;;;16.10;56.70;;;;;;4976526;28;20277;-65
2022/11/12 05:16:53;;;;;;;3.83;3.53;;;16.20;56.90;;;;;;4976812;28;20253;-65
2022/11/12 05:19:40;;;;;;;3.83;3.50;;;16.20;56.90;;;;;;4979294;28;20566;-65
2022/11/12 05:22:25;;;;;;;3.70;3.30;;;16.20;56.60;;;;;;4975996;28;20702;-65
2022/11/12 05:25:11;;;;;;;3.72;3.30;;;16.20;56.50;;;;;;4975340;28;20197;-65
2022/11/12 05:27:58;;;;;;;3.50;3.20;;;16.30;56.60;;;;;;4975213;28;20192;-65
2022/11/12 05:30:43;;;;;;;3.95;3.45;;;16.30;56.30;;;;;;4975346;28;20228;-65
2022/11/12 05:33:29;;;;;;;3.65;3.28;;;16.30;56.20;;;;;;4975666;28;20192;-65
2022/11/12 05:36:15;;;;;;;3.85;3.45;;;16.30;56.30;;;;;;4975365;28;20653;-65
2022/11/12 05:39:03;;;;;;;3.55;3.25;;;16.40;56.30;;;;;;4975438;28;20325;-65
2022/11/12 05:41:48;;;;;;;3.53;3.22;;;16.30;56.30;;;;;;4974905;28;20333;-65
2022/11/12 05:44:35;;;;;;;4.10;3.65;;;16.40;56.00;;;;;;4975408;28;20241;-65
2022/11/12 05:47:20;;;;;;;5.20;3.40;;;16.40;56.00;;;;;;4975156;28;20185;-66
2022/11/12 05:50:07;;;;;;;3.13;2.85;;;16.40;56.10;;;;;;4974980;28;20564;-66
2022/11/12 05:52:53;;;;;;;3.47;3.17;;;16.50;56.10;;;;;;4975187;28;20257;-66
2022/11/12 05:55:39;;;;;;;5.20;3.53;;;16.50;56.10;;;;;;4975006;28;20249;-66
2022/11/12 05:58:25;;;;;;;3.30;3.00;;;16.50;56.10;;;;;;4975231;28;20213;-66
2022/11/12 06:01:12;;;;;;;3.42;3.05;;;16.50;55.80;;;;;;5050598;23;20248;-71
2022/11/12 06:03:57;;;;;;;3.30;3.00;;;16.50;55.80;;;;;;4994412;28;20188;-71
2022/11/12 06:06:43;;;;;;;3.97;3.08;;;16.50;56.00;;;;;;4994113;28;20188;-71
2022/11/12 06:09:29;;;;;;;3.50;3.20;;;16.60;55.80;;;;;;4994175;28;20189;-71
2022/11/12 06:12:14;;;;;;;3.30;3.00;;;16.50;55.60;;;;;;4994388;28;20231;-71
2022/11/12 06:15:00;;;;;;;3.40;3.10;;;16.60;55.90;;;;;;4994021;28;20285;-70
2022/11/12 06:17:47;;;;;;;3.47;3.17;;;16.60;55.80;;;;;;4994185;28;20411;-70
2022/11/12 06:20:33;;;;;;;3.33;3.03;;;16.60;55.80;;;;;;4996639;28;20223;-71
2022/11/12 06:23:19;;;;;;;3.35;3.05;;;16.60;55.90;;;;;;4998516;28;20236;-71
2022/11/12 06:26:05;;;;;;;3.60;3.30;;;16.60;55.70;;;;;;4998115;28;20228;-71
2022/11/12 06:28:50;;;;;;;3.55;3.25;;;16.60;55.70;;;;;;4997890;28;20647;-71
2022/11/12 06:31:36;;;;;;;3.50;3.20;;;16.70;55.60;;;;;;4997583;28;20220;-71
2022/11/12 06:34:23;;;;;;;3.25;2.90;;;16.70;55.70;;;;;;4997910;28;20315;-71
2022/11/12 06:37:09;;;;;;;3.45;3.13;;;16.70;55.40;;;;;;4998253;28;20208;-71
2022/11/12 06:39:57;;;;;;;3.22;3.00;;;16.80;55.30;;;;;;5044802;23;20195;-68
2022/11/12 06:42:43;;;;;;;3.33;3.03;;;16.80;55.30;;;;;;4959432;29;20675;-66
2022/11/12 06:45:29;;;;;;;3.33;3.03;;;16.80;55.00;;;;;;4958911;29;20198;-66
2022/11/12 06:48:14;;;;;;;2.95;2.70;;;16.80;55.00;;;;;;4959402;29;20276;-66
2022/11/12 06:51:07;;;;;;;3.42;3.13;;;16.90;55.00;;;;;;4958952;29;20226;-66
2022/11/12 06:53:54;;;;;;;4.20;2.90;;;16.90;54.60;;;;;;4959006;29;20250;-66
2022/11/12 06:56:39;;;;;;;4.30;3.10;;;16.90;54.60;;;;;;4958673;29;20202;-66
2022/11/12 06:59:25;;;;;;;3.00;2.80;;;16.90;54.80;;;;;;4958720;29;20213;-66
2022/11/12 07:02:11;;;;;;;3.47;3.17;;;17.00;55.00;;;;;;4958986;29;20222;-65
2022/11/12 07:04:57;;;;;;;3.40;3.05;;;17.00;54.50;;;;;;4958883;29;20182;-65
2022/11/12 07:07:44;;;;;;;3.40;3.10;;;17.00;54.50;;;;;;4959490;29;20186;-65
2022/11/12 07:10:30;;;;;;;3.00;2.80;;;17.10;54.70;;;;;;4958501;29;20237;-65
2022/11/12 07:13:17;;;;;;;3.33;3.03;;;17.10;54.40;;;;;;4958983;29;20186;-66
2022/11/12 07:16:04;;;;;;;3.60;3.30;;;17.10;54.30;;;;;;4958760;29;20185;-66
2022/11/12 07:18:51;;;;;;;3.53;3.22;;;17.20;54.10;;;;;;4958565;29;20214;-66
2022/11/12 07:21:36;;;;;;;3.33;3.10;;;17.20;54.00;;;;;;4958716;29;20708;-66
2022/11/12 07:24:23;;;;;;;3.40;3.10;;;17.20;53.90;;;;;;4958379;29;20237;-66
2022/11/12 07:27:09;;;;;;;3.58;3.28;;;17.20;54.00;;;;;;4958257;29;20202;-66
2022/11/12 07:29:54;;;;;;;3.25;2.95;;;17.30;54.10;;;;;;4957976;28;20571;-66
2022/11/12 07:32:40;;;;;;;3.70;3.40;;;17.30;54.00;;;;;;4958223;29;20190;-66
2022/11/12 07:35:26;;;;;;;3.55;3.13;;;17.30;53.90;;;;;;4957998;29;20189;-66
2022/11/12 07:38:12;;;;;;;3.22;2.92;;;17.30;53.90;;;;;;4957622;29;20218;-66
2022/11/12 07:41:03;;;;;;;3.53;3.22;;;17.30;53.80;;;;;;4957752;29;20596;-66
2022/11/12 07:43:50;;;;;;;3.45;3.15;;;17.30;53.60;;;;;;4957581;29;20197;-66
2022/11/12 07:46:36;;;;;;;3.60;3.30;;;17.30;53.40;;;;;;4957992;29;20190;-66
2022/11/12 07:49:22;;;;;;;3.75;3.35;;;17.40;53.40;;;;;;4957650;29;20194;-66
2022/11/12 07:52:07;;;;;;;3.40;3.10;;;17.40;53.30;;;;;;4956818;29;20712;-66
2022/11/12 07:54:53;;;;;;;3.22;2.92;;;17.40;53.50;;;;;;4957394;29;20673;-66
2022/11/12 07:57:40;;;;;;;3.13;2.92;;;17.30;53.30;;;;;;4957606;29;20238;-66
2022/11/12 08:00:26;;;;;;;3.28;3.08;;;17.30;53.50;;;;;;4957926;29;20194;-66
2022/11/12 08:03:11;;;;;;;3.30;3.10;;;17.30;53.60;;;;;;4958034;29;20266;-66
2022/11/12 08:05:59;;;;;;;3.85;2.85;;;17.30;53.70;;;;;;4962021;29;20183;-66
2022/11/12 08:08:45;;;;;;;3.90;3.60;;;17.30;53.90;;;;;;4988852;23;20308;-70
2022/11/12 08:11:31;;;;;;;3.85;3.55;;;17.30;54.10;;;;;;4976850;28;20726;-70
2022/11/12 08:14:18;;;;;;;3.78;3.47;;;17.30;53.90;;;;;;4976943;28;20192;-70
2022/11/12 08:17:04;;;;;;;4.15;3.72;;;17.30;53.80;;;;;;4976807;28;20313;-70
2022/11/12 08:19:54;;;;;;;3.60;3.35;;;17.40;53.70;;;;;;4976747;28;20213;-70
2022/11/12 08:22:40;;;;;;;3.00;2.80;;;17.40;53.60;;;;;;4976477;28;20666;-70
2022/11/12 08:25:26;;;;;;;3.22;2.83;;;17.50;53.60;;;;;;4976425;28;20192;-70
2022/11/12 08:28:11;;;;;;;2.78;2.58;;;17.50;53.60;;;;;;4976140;28;20181;-70
2022/11/12 08:30:58;;;;;;;3.30;3.00;;;17.60;53.60;;;;;;4976367;28;20228;-71
2022/11/12 08:33:44;;;;;;;3.42;3.05;;;17.70;53.60;;;;;;4976250;28;20212;-70
2022/11/12 08:36:30;;;;;;;2.70;2.50;;;17.70;53.50;;;;;;4976178;28;20230;-71
2022/11/12 08:39:16;;;;;;;2.92;2.72;;;17.80;53.20;;;;;;5117267;23;20372;-65
2022/11/12 08:42:01;;;;;;;2.88;2.67;;;17.80;53.20;;;;;;5101489;23;20244;-65
2022/11/12 08:44:43;;;;;;;2.67;2.47;;;17.80;53.00;;;;;;5000045;23;20280;-72
2022/11/12 08:47:30;;;;;;;2.65;2.45;;;17.90;53.20;;;;;;4976344;28;20719;-72
2022/11/12 08:50:16;;;;;;;3.08;2.88;;;17.90;52.90;;;;;;4976362;28;20190;-72
2022/11/12 08:53:02;;;;;;;3.25;3.03;;;18.00;53.00;;;;;;4976527;28;20193;-72
2022/11/12 08:55:57;;;;;;;3.40;3.10;;;18.10;52.70;;;;;;4309357;23;20699;-67
2022/11/12 08:58:43;;;;;;;3.78;3.47;;;18.10;52.60;;;;;;4975714;28;20209;-67
2022/11/12 09:01:30;;;;;;;3.53;3.25;;;18.20;52.30;;;;;;4976274;28;20260;-66
2022/11/12 09:04:17;;;;;;;3.83;3.53;;;18.30;52.30;;;;;;4976347;28;20558;-67
2022/11/12 09:07:03;;;;;;;4.15;3.75;;;18.30;52.10;;;;;;4975538;28;20224;-67
2022/11/12 09:09:48;;;;;;;3.33;3.03;;;18.30;52.00;;;;;;5012517;23;20310;-70
2022/11/12 09:12:34;;;;;;;3.53;3.20;;;18.40;52.00;;;;;;4977110;28;20365;-70
2022/11/12 09:15:20;;;;;;;3.22;2.95;;;18.50;51.70;;;;;;4978310;28;20192;-70
2022/11/12 09:18:06;;;;;;;3.33;3.03;;;18.50;52.00;;;;;;4976771;28;20233;-71
2022/11/12 09:20:59;;;;;;;4.85;3.25;;;18.50;51.60;;;;;;4976802;28;20228;-71
2022/11/12 09:23:45;;;;;;;3.70;3.40;;;18.50;51.70;;;;;;4977061;28;20261;-70
2022/11/12 09:26:31;;;;;;;3.90;3.50;;;18.50;51.70;;;;;;4977113;28;20659;-70
2022/11/12 09:29:18;;;;;;;3.80;3.20;;;18.50;51.40;;;;;;4978182;28;20548;-70
2022/11/12 09:32:04;;;;;;;3.45;3.25;;;18.50;51.60;;;;;;4977644;28;20269;-70
2022/11/12 09:34:49;;;;;;;3.50;3.20;;;18.50;51.60;;;;;;4962155;28;20268;-70
2022/11/12 09:37:38;;;;;;;3.22;2.95;;;18.50;51.70;;;;;;4976875;28;20197;-71
2022/11/12 09:40:24;;;;;;;3.50;3.20;;;18.50;51.80;;;;;;4976318;28;20189;-71
2022/11/12 09:43:11;;;;;;;4.15;3.00;;;18.60;51.60;;;;;;4976586;28;20545;-70
2022/11/12 09:45:59;;;;;;;3.15;2.95;;;18.60;51.60;;;;;;4976476;28;20711;-70
2022/11/12 09:48:47;;;;;;;3.50;3.20;;;18.60;51.50;;;;;;4962566;28;20189;-70
2022/11/12 09:51:34;;;;;;;3.70;3.40;;;18.70;51.40;;;;;;4977370;28;20588;-70
2022/11/12 09:54:22;;;;;;;3.72;3.42;;;18.70;51.40;;;;;;4977352;28;20342;-70
2022/11/12 09:57:10;;;;;;;3.45;3.20;;;18.70;51.30;;;;;;4980354;28;20185;-70
2022/11/12 09:59:57;;;;;;;4.00;3.40;;;18.80;51.40;;;;;;4980328;28;20213;-70
2022/11/12 10:02:46;;;;;;;4.70;3.13;;;18.80;51.30;;;;;;4979831;28;20230;-70
2022/11/12 10:05:33;;;;;;;3.45;3.20;;;18.80;51.30;;;;;;4979210;28;20197;-70
2022/11/12 10:08:34;;;;;;;3.30;3.03;;;18.80;51.20;;;;;;4979617;28;20193;-70
2022/11/12 10:14:58;;;;;;;3.40;3.20;;;18.90;51.30;;;;;;4978976;28;20189;-70
2022/11/12 10:17:44;;;;;;;3.78;3.47;;;18.90;51.20;;;;;;4978608;28;20686;-70
2022/11/12 10:20:32;;;;;;;4.05;3.22;;;18.90;51.20;;;;;;4978969;28;20295;-70
2022/11/12 10:23:19;;;;;;;3.70;3.40;;;18.90;51.80;;;;;;4978822;28;20189;-71
2022/11/12 10:26:10;;;;;;;3.50;3.20;;;19.00;51.20;;;;;;4978643;28;20672;-71
2022/11/12 10:29:01;;;;;;;3.65;3.35;;;19.00;51.10;;;;;;4978797;28;20204;-70
2022/11/12 10:31:47;;;;;;;3.45;3.15;;;19.00;50.90;;;;;;4978328;28;20272;-71
2022/11/12 10:34:34;;;;;;;3.63;3.33;;;19.00;51.00;;;;;;4978659;28;20193;-70
2022/11/12 10:37:22;;;;;;;3.85;3.53;;;19.00;51.00;;;;;;4978872;28;20313;-70
2022/11/12 10:40:27;;;;;;;3.25;2.95;;;19.00;50.90;;;;;;4978501;28;20336;-70
2022/11/12 10:43:23;;;;;;;3.70;3.40;;;19.00;50.90;;;;;;4978495;28;20192;-72
2022/11/12 10:46:18;;;;;;;3.90;3.60;;;19.10;51.00;;;;;;4978723;28;20194;-71
2022/11/12 10:49:06;;;;;;;3.90;3.50;;;19.00;50.90;;;;;;4978528;28;20194;-71
2022/11/12 10:51:55;;;;;;;4.65;3.90;;;19.10;50.90;;;;;;4978111;28;20225;-71
2022/11/12 10:54:41;;;;;;;3.70;3.40;;;19.00;50.90;;;;;;4978049;28;20194;-71
2022/11/12 10:57:27;;;;;;;3.92;3.63;;;19.00;50.90;;;;;;4978096;28;20258;-71
2022/11/12 11:00:18;;;;;;;3.85;3.55;;;19.10;51.00;;;;;;4978056;28;20245;-71
2022/11/12 11:03:15;;;;;;;4.72;3.38;;;19.10;50.90;;;;;;4978110;28;20232;-71
2022/11/12 11:06:01;;;;;;;4.05;3.75;;;19.10;51.00;;;;;;4977444;28;20188;-71
2022/11/12 11:08:48;;;;;;;4.55;4.15;;;19.10;51.00;;;;;;4978082;28;20762;-70
2022/11/12 11:11:34;;;;;;;4.15;3.85;;;19.20;51.00;;;;;;4977276;28;20593;-70
2022/11/12 11:14:28;;;;;;;4.10;3.80;;;19.10;51.10;;;;;;4977669;28;20252;-70
2022/11/12 11:17:16;;;;;;;3.42;3.13;;;19.10;51.10;;;;;;4977979;28;20189;-70
2022/11/12 11:20:03;;;;;;;3.20;3.00;;;19.10;51.30;;;;;;4977226;28;20216;-70
2022/11/12 11:22:50;;;;;;;3.90;3.60;;;19.00;51.40;;;;;;4977334;28;20188;-70
2022/11/12 11:25:36;;;;;;;3.58;3.30;;;19.00;51.50;;;;;;4977598;28;20185;-70
2022/11/12 11:28:24;;;;;;;3.65;3.33;;;19.00;51.60;;;;;;4977515;28;20559;-70
2022/11/12 11:31:14;;;;;;;4.13;3.13;;;19.00;51.70;;;;;;4977099;28;20369;-70
2022/11/12 11:34:07;;;;;;;3.20;3.00;;;19.00;51.80;;;;;;4977586;28;20193;-72
2022/11/12 11:36:58;;;;;;;5.68;3.40;;;19.00;51.80;;;;;;4977519;28;20197;-73
2022/11/12 11:39:45;;;;;;;3.63;3.33;;;19.00;51.80;;;;;;4977291;28;20209;-72
2022/11/12 11:42:56;;;;;;;3.20;3.00;;;19.00;51.80;;;;;;4977277;28;20383;-72
2022/11/12 11:45:54;;;;;;;4.15;3.80;;;19.00;52.00;;;;;;4977073;28;20560;-71
2022/11/12 11:48:47;;;;;;;3.83;3.53;;;19.00;51.80;;;;;;4976981;28;20188;-71
2022/11/12 11:51:38;;;;;;;3.70;3.40;;;19.00;52.00;;;;;;4977355;28;20232;-71
2022/11/12 11:54:35;;;;;;;3.95;3.65;;;19.00;52.00;;;;;;4977223;28;20655;-71
2022/11/12 11:57:22;;;;;;;3.90;3.60;;;19.10;52.10;;;;;;4977092;28;20196;-71
2022/11/12 12:00:12;;;;;;;4.18;3.15;;;19.10;52.00;;;;;;4977234;28;20213;-71
2022/11/12 12:03:19;;;;;;;3.30;3.00;;;19.10;52.00;;;;;;4976938;28;20205;-71
2022/11/12 12:06:18;;;;;;;3.90;3.50;;;19.10;51.80;;;;;;4976990;28;20190;-71
2022/11/12 12:09:11;;;;;;;3.58;3.28;;;19.10;51.70;;;;;;4976937;28;20209;-71
2022/11/12 12:12:00;;;;;;;3.70;3.40;;;19.10;51.90;;;;;;4976908;28;20243;-71
2022/11/12 12:14:51;;;;;;;3.53;3.22;;;19.20;52.00;;;;;;4977267;28;20282;-71
2022/11/12 12:17:43;;;;;;;2.95;2.72;;;19.20;52.10;;;;;;4976390;28;20237;-71
2022/11/12 12:20:32;;;;;;;3.85;3.33;;;19.30;51.90;;;;;;4977450;28;20209;-71
2022/11/12 12:23:23;;;;;;;3.42;3.20;;;19.40;51.90;;;;;;4977298;28;20270;-71
2022/11/12 12:26:12;;;;;;;3.10;2.90;;;19.40;51.70;;;;;;4978078;28;20270;-71
2022/11/12 12:29:01;;;;;;;3.50;3.20;;;19.50;51.50;;;;;;4978217;28;20708;-71
2022/11/12 12:31:49;;;;;;;3.40;3.08;;;19.50;51.60;;;;;;4977448;28;20245;-71
2022/11/12 12:34:37;;;;;;;3.72;3.42;;;19.50;52.40;;;;;;4977321;28;20186;-71
2022/11/12 12:37:24;;;;;;;3.47;3.17;;;19.50;51.70;;;;;;4977194;28;20205;-71
2022/11/12 12:40:17;;;;;;;3.50;3.22;;;19.40;51.70;;;;;;4977220;28;20429;-72
2022/11/12 12:43:10;;;;;;;3.13;2.90;;;19.50;51.90;;;;;;4977156;28;20269;-71
2022/11/12 12:45:57;;;;;;;3.50;3.20;;;19.40;51.70;;;;;;5045386;23;20312;-68
2022/11/12 12:48:44;;;;;;;3.10;2.80;;;19.50;51.60;;;;;;4995550;28;20207;-68
2022/11/12 12:51:30;;;;;;;3.67;3.05;;;19.50;51.90;;;;;;4995222;28;20224;-68
2022/11/12 12:54:55;;;;;;;3.22;3.03;;;19.50;52.00;;;;;;4995174;28;20632;-68
2022/11/12 12:57:41;;;;;;;3.47;3.17;;;19.50;51.70;;;;;;4995290;28;20620;-68
2022/11/12 13:00:29;;;;;;;3.40;3.13;;;19.50;52.50;;;;;;4994584;28;20320;-68
2022/11/12 13:03:52;;;;;;;4.45;2.80;;;19.50;52.00;;;;;;4994657;28;20197;-68
2022/11/12 13:06:39;;;;;;;4.03;3.08;;;19.40;52.10;;;;;;4994927;28;20244;-68
2022/11/12 13:09:25;;;;;;;3.70;3.10;;;19.40;52.30;;;;;;4994494;28;20185;-68
2022/11/12 13:12:23;;;;;;;3.35;3.05;;;19.40;52.50;;;;;;4994763;28;20271;-68
2022/11/12 13:17:47;;;;;;;3.40;2.83;;;19.40;53.30;;;;;;2524886;23;20537;-65
2022/11/12 13:20:39;;;;;;;3.30;3.10;;;19.50;53.30;;;;;;4975328;28;20243;-65
2022/11/12 13:24:04;;;;;;;3.70;3.40;;;19.40;52.80;;;;;;4975349;28;20197;-66
2022/11/12 13:26:52;;;;;;;4.05;3.53;;;19.40;53.80;;;;;;4974857;28;20229;-66
2022/11/12 13:29:42;;;;;;;3.58;3.00;;;19.50;54.20;;;;;;4974416;28;20188;-66
2022/11/12 13:32:37;;;;;;;4.20;3.35;;;19.50;54.60;;;;;;4975025;28;20214;-66
2022/11/12 13:35:33;;;;;;;3.30;3.00;;;19.50;54.60;;;;;;4975679;28;20615;-65
2022/11/12 13:38:20;;;;;;;4.28;3.80;;;19.60;55.00;;;;;;4974994;28;20300;-65
2022/11/12 13:41:08;;;;;;;3.92;3.63;;;19.60;55.30;;;;;;4974390;28;20563;-66
2022/11/12 13:43:55;;;;;;;4.03;3.42;;;19.60;54.40;;;;;;5005673;23;20236;-67
2022/11/12 13:46:41;;;;;;;4.10;3.70;;;19.60;54.80;;;;;;4994841;28;20611;-68
2022/11/12 13:49:26;;;;;;;5.28;4.30;;;19.70;55.20;;;;;;4991106;23;20245;-70
2022/11/12 13:52:12;;;;;;;5.03;4.53;;;19.70;54.90;;;;;;4975174;28;20232;-70
2022/11/12 13:55:03;;;;;;;4.90;4.50;;;19.70;55.10;;;;;;4975181;28;20185;-70
2022/11/12 13:57:49;;;;;;;4.55;3.55;;;19.70;54.80;;;;;;4975248;28;20190;-70
2022/11/12 14:00:34;;;;;;;4.13;3.72;;;19.70;54.30;;;;;;4975042;28;20344;-70
2022/11/12 14:03:20;;;;;;;7.90;3.25;;;19.70;54.00;;;;;;4975192;28;20302;-70
2022/11/12 14:06:13;;;;;;;4.72;3.55;;;19.70;54.00;;;;;;4975017;28;20253;-70
2022/11/12 14:09:06;;;;;;;3.63;3.28;;;19.70;53.90;;;;;;4975354;28;20329;-70
2022/11/12 14:12:04;;;;;;;3.80;3.50;;;19.70;53.90;;;;;;4975365;28;20349;-70
2022/11/12 14:15:00;;;;;;;3.72;3.40;;;19.60;54.00;;;;;;4975454;28;20233;-72
2022/11/12 14:17:49;;;;;;;3.58;3.28;;;19.60;54.20;;;;;;4975440;28;20257;-72
2022/11/12 14:20:36;;;;;;;3.67;3.38;;;19.60;54.20;;;;;;4975701;28;20589;-71
2022/11/12 14:23:23;;;;;;;3.80;3.50;;;19.60;54.00;;;;;;5029738;23;20235;-69
2022/11/12 14:26:10;;;;;;;3.28;2.97;;;19.60;54.20;;;;;;4996567;28;20196;-66
2022/11/12 14:28:58;;;;;;;3.03;2.83;;;19.50;54.10;;;;;;4994776;28;20192;-67
2022/11/12 14:31:43;;;;;;;3.03;2.83;;;19.50;54.20;;;;;;4995060;28;20275;-67
2022/11/12 14:34:30;;;;;;;3.30;3.00;;;19.50;54.20;;;;;;5010150;23;20316;-71
2022/11/12 14:37:29;;;;;;;3.35;3.05;;;19.50;54.70;;;;;;4996081;28;20187;-71
2022/11/12 14:40:16;;;;;;;4.05;3.42;;;19.50;54.50;;;;;;4999768;28;20208;-71
2022/11/12 14:43:01;;;;;;;3.20;2.90;;;19.60;54.60;;;;;;5001745;28;20217;-71
2022/11/12 14:45:49;;;;;;;3.75;2.92;;;19.50;54.40;;;;;;5000943;28;20239;-71
2022/11/12 14:48:37;;;;;;;3.22;2.80;;;19.50;54.30;;;;;;4999670;28;20268;-71
2022/11/12 14:51:23;;;;;;;4.22;3.38;;;19.60;54.20;;;;;;4998952;28;20696;-71
2022/11/12 14:54:09;;;;;;;2.95;2.75;;;19.50;54.20;;;;;;4998409;28;20184;-71
2022/11/12 14:56:55;;;;;;;3.70;3.40;;;19.50;53.50;;;;;;4998805;28;20309;-71
2022/11/12 14:59:41;;;;;;;3.45;3.15;;;19.60;53.50;;;;;;4998831;28;20256;-71
2022/11/12 15:02:31;;;;;;;4.45;3.20;;;19.50;53.30;;;;;;4999631;28;20231;-71
2022/11/12 15:05:18;;;;;;;3.22;2.92;;;19.50;53.30;;;;;;5000741;28;20189;-71
2022/11/12 15:08:04;;;;;;;3.65;2.90;;;19.50;53.50;;;;;;5001705;28;20197;-71
2022/11/12 15:10:50;;;;;;;3.78;2.80;;;19.50;53.70;;;;;;4997821;28;20264;-71